createdAt,value
2018-02-05T00:01:50.971Z,-1.30
2018-02-05T00:04:17.457Z,-1.40
2018-02-05T00:06:44.103Z,-1.40
2018-02-05T00:09:11.315Z,-1.50
2018-02-05T00:11:37.839Z,-1.50
2018-02-05T00:14:04.310Z,-1.50
2018-02-05T00:16:30.782Z,-1.70
2018-02-05T00:18:57.278Z,-1.50
2018-02-05T00:21:23.778Z,-1.60
2018-02-05T00:23:50.231Z,-1.60
2018-02-05T00:26:17.446Z,-1.50
2018-02-05T00:28:44.119Z,-1.50
2018-02-05T00:31:11.355Z,-1.50
2018-02-05T00:33:37.858Z,-1.50
2018-02-05T00:36:04.443Z,-1.50
2018-02-05T00:38:31.713Z,-1.40
2018-02-05T00:40:58.180Z,-1.50
2018-02-05T00:43:25.407Z,-1.60
2018-02-05T00:45:52.028Z,-1.60
2018-02-05T00:48:18.494Z,-1.70
2018-02-05T00:50:45.024Z,-1.70
2018-02-05T00:53:12.183Z,-1.80
2018-02-05T00:55:38.686Z,-1.70
2018-02-05T00:58:05.171Z,-1.80
2018-02-05T01:00:31.656Z,-1.80
2018-02-05T01:02:58.178Z,-1.70
2018-02-05T01:05:25.370Z,-1.60
2018-02-05T01:07:51.930Z,-1.70
2018-02-05T01:10:18.401Z,-1.50
2018-02-05T01:12:44.874Z,-1.50
2018-02-05T01:15:11.464Z,-1.40
2018-02-05T01:17:38.661Z,-1.20
2018-02-05T01:20:05.223Z,-1.30
2018-02-05T01:22:31.663Z,-1.20
2018-02-05T01:24:58.199Z,-1.10
2018-02-05T01:27:24.723Z,-1.10
2018-02-05T01:29:51.189Z,-0.90
2018-02-05T01:32:18.439Z,-0.80
2018-02-05T01:34:45.720Z,-0.70
2018-02-05T01:37:12.205Z,-0.70
2018-02-05T01:39:38.624Z,-0.50
2018-02-05T01:42:05.144Z,-0.50
2018-02-05T01:44:31.572Z,-0.50
2018-02-05T01:46:58.040Z,-0.50
2018-02-05T01:49:24.637Z,-0.40
2018-02-05T01:51:51.077Z,-0.40
2018-02-05T01:54:17.545Z,-0.40
2018-02-05T01:56:44.805Z,-0.30
2018-02-05T01:59:11.356Z,-0.30
2018-02-05T02:01:38.620Z,-0.20
2018-02-05T02:04:05.127Z,-0.20
2018-02-05T02:06:31.624Z,-0.20
2018-02-05T02:08:58.122Z,-0.10
2018-02-05T02:11:24.730Z,-0.10
2018-02-05T02:13:51.178Z,-0.10
2018-02-05T02:16:18.416Z,-0.20
2018-02-05T02:18:44.873Z,-0.20
2018-02-05T02:21:11.403Z,-0.10
2018-02-05T02:23:38.622Z,-0.10
2018-02-05T02:26:05.171Z,-0.10
2018-02-05T02:28:32.510Z,-0.10
2018-02-05T02:30:58.950Z,-0.10
2018-02-05T02:33:25.472Z,-0.10
2018-02-05T02:35:52.049Z,-0.10
2018-02-05T02:38:18.652Z,-0.10
2018-02-05T02:40:45.073Z,-0.10
2018-02-05T02:43:11.690Z,-0.10
2018-02-05T02:45:38.183Z,0.00
2018-02-05T02:48:05.400Z,0.00
2018-02-05T02:50:31.927Z,-0.10
2018-02-05T02:52:58.430Z,-0.10
2018-02-05T02:55:24.932Z,-0.20
2018-02-05T02:57:52.184Z,-0.10
2018-02-05T03:00:19.439Z,-0.10
2018-02-05T03:02:46.642Z,-0.10
2018-02-05T03:05:13.141Z,-0.20
2018-02-05T03:07:39.674Z,-0.20
2018-02-05T03:10:06.146Z,-0.20
2018-02-05T03:12:32.609Z,-0.20
2018-02-05T03:14:59.085Z,-0.20
2018-02-05T03:17:25.542Z,-0.20
2018-02-05T03:19:52.059Z,-0.10
2018-02-05T03:22:18.540Z,-0.20
2018-02-05T03:24:44.980Z,-0.20
2018-02-05T03:27:11.492Z,-0.20
2018-02-05T03:29:37.963Z,-0.20
2018-02-05T03:32:05.211Z,-0.20
2018-02-05T03:34:32.449Z,-0.20
2018-02-05T03:36:58.894Z,-0.30
2018-02-05T03:39:26.149Z,-0.20
2018-02-05T03:41:53.536Z,-0.20
2018-02-05T03:53:10.491Z,-0.30
2018-02-05T03:55:37.020Z,-0.40
2018-02-05T03:58:04.182Z,-0.30
2018-02-05T04:00:30.653Z,-0.40
2018-02-05T04:02:57.222Z,-0.30
2018-02-05T04:05:23.682Z,-0.30
2018-02-05T04:07:50.164Z,-0.30
2018-02-05T04:10:16.616Z,-0.30
2018-02-05T04:12:43.218Z,-0.30
2018-02-05T04:15:09.800Z,-0.20
2018-02-05T04:17:36.382Z,-0.20
2018-02-05T04:20:02.987Z,-0.30
2018-02-05T04:22:30.191Z,-0.30
2018-02-05T04:24:56.672Z,-0.30
2018-02-05T04:27:23.159Z,-0.30
2018-02-05T04:29:49.626Z,-0.20
2018-02-05T04:32:16.077Z,-0.20
2018-02-05T04:34:42.560Z,-0.20
2018-02-05T04:37:09.007Z,-0.20
2018-02-05T04:39:35.489Z,-0.20
2018-02-05T04:42:01.994Z,-0.20
2018-02-05T04:44:29.180Z,-0.30
2018-02-05T04:46:55.639Z,-0.30
2018-02-05T04:49:22.116Z,-0.20
2018-02-05T04:51:49.320Z,-0.20
2018-02-05T04:54:15.778Z,-0.30
2018-02-05T04:56:42.259Z,-0.20
2018-02-05T04:59:08.757Z,-0.30
2018-02-05T05:01:35.257Z,-0.20
2018-02-05T05:04:02.547Z,-0.20
2018-02-05T05:06:29.022Z,-0.30
2018-02-05T05:08:55.778Z,-0.30
2018-02-05T05:11:22.264Z,-0.30
2018-02-05T05:13:49.548Z,-0.30
2018-02-05T05:16:15.983Z,-0.30
2018-02-05T05:18:42.515Z,-0.30
2018-02-05T05:21:08.974Z,-0.30
2018-02-05T05:23:35.434Z,-0.30
2018-02-05T05:26:01.922Z,-0.30
2018-02-05T05:28:28.452Z,-0.30
2018-02-05T05:30:54.919Z,-0.30
2018-02-05T05:33:21.401Z,-0.30
2018-02-05T05:35:48.623Z,-0.40
2018-02-05T05:38:15.104Z,-0.40
2018-02-05T05:40:41.624Z,-0.50
2018-02-05T05:43:08.853Z,-0.40
2018-02-05T05:45:35.361Z,-0.70
2018-02-05T05:48:01.844Z,-0.40
2018-02-05T05:50:29.087Z,-0.40
2018-02-05T05:52:55.560Z,-0.40
2018-02-05T05:55:22.082Z,-0.40
2018-02-05T05:57:48.572Z,-0.40
2018-02-05T06:00:15.160Z,-0.50
2018-02-05T06:02:41.627Z,-0.60
2018-02-05T06:05:08.104Z,-0.60
2018-02-05T06:07:34.565Z,-0.60
2018-02-05T06:10:01.122Z,-0.60
2018-02-05T06:12:28.515Z,-0.70
2018-02-05T06:14:55.757Z,-0.70
2018-02-05T06:17:24.579Z,-0.70
2018-02-05T06:19:51.058Z,-0.70
2018-02-05T06:22:17.583Z,-0.80
2018-02-05T06:24:44.130Z,-0.80
2018-02-05T06:27:10.591Z,-0.90
2018-02-05T06:29:37.796Z,-1.00
2018-02-05T06:32:04.261Z,-1.00
2018-02-05T06:34:30.828Z,-1.00
2018-02-05T06:36:57.296Z,-0.90
2018-02-05T06:39:23.777Z,-1.10
2018-02-05T06:41:50.978Z,-1.10
2018-02-05T06:44:17.462Z,-1.10
2018-02-05T06:46:44.072Z,-1.20
2018-02-05T06:49:10.512Z,-1.20
2018-02-05T06:51:49.539Z,-1.30
2018-02-05T06:54:28.329Z,-1.20
2018-02-05T06:56:54.803Z,-1.20
2018-02-05T06:59:21.299Z,-1.30
2018-02-05T07:01:47.764Z,-1.30
2018-02-05T07:04:14.451Z,-1.30
2018-02-05T07:06:40.919Z,-1.40
2018-02-05T07:09:07.436Z,-1.30
2018-02-05T07:11:33.959Z,-1.30
2018-02-05T07:14:00.428Z,-1.30
2018-02-05T07:16:26.879Z,-1.30
2018-02-05T07:18:53.368Z,-1.30
2018-02-05T07:21:19.831Z,-1.30
2018-02-05T07:23:46.314Z,-1.20
2018-02-05T07:26:12.864Z,-1.00
2018-02-05T07:28:39.393Z,-1.10
2018-02-05T07:31:05.848Z,-1.10
2018-02-05T07:33:32.394Z,-1.10
2018-02-05T07:35:58.866Z,-1.10
2018-02-05T07:38:25.401Z,-1.10
2018-02-05T07:40:52.821Z,-0.50
2018-02-05T07:43:19.346Z,-0.50
2018-02-05T07:45:45.799Z,-0.30
2018-02-05T07:48:12.251Z,-0.20
2018-02-05T07:50:38.739Z,-0.40
2018-02-05T07:53:06.048Z,0.00
2018-02-05T07:55:32.596Z,0.00
2018-02-05T07:57:59.798Z,1.10
2018-02-05T08:00:26.360Z,1.00
2018-02-05T08:02:52.882Z,1.10
2018-02-05T08:05:19.435Z,1.00
2018-02-05T08:07:45.966Z,1.10
2018-02-05T08:10:12.411Z,1.10
2018-02-05T08:12:39.744Z,0.90
2018-02-05T08:15:06.211Z,0.90
2018-02-05T08:17:33.452Z,1.30
2018-02-05T08:20:00.638Z,1.80
2018-02-05T08:22:27.134Z,1.70
2018-02-05T08:24:54.372Z,1.90
2018-02-05T08:27:21.238Z,1.90
2018-02-05T08:29:48.501Z,1.20
2018-02-05T08:32:15.078Z,1.10
2018-02-05T08:34:41.628Z,1.00
2018-02-05T08:37:08.089Z,0.80
2018-02-05T08:39:35.395Z,0.70
2018-02-05T08:42:01.888Z,0.70
2018-02-05T08:44:28.393Z,1.40
2018-02-05T08:46:55.554Z,1.40
2018-02-05T08:49:22.023Z,1.80
2018-02-05T08:51:48.531Z,1.80
2018-02-05T08:54:15.740Z,1.50
2018-02-05T08:56:42.162Z,1.40
2018-02-05T08:59:08.731Z,1.10
2018-02-05T09:01:35.188Z,1.00
2018-02-05T09:04:01.725Z,1.10
2018-02-05T09:06:29.010Z,1.10
2018-02-05T09:08:55.563Z,1.10
2018-02-05T09:11:22.060Z,1.10
2018-02-05T09:13:48.539Z,1.00
2018-02-05T09:16:15.012Z,1.10
2018-02-05T09:18:42.268Z,0.70
2018-02-05T09:21:09.480Z,1.10
2018-02-05T09:23:36.107Z,1.10
2018-02-05T09:26:02.637Z,1.30
2018-02-05T09:28:29.166Z,1.00
2018-02-05T09:30:55.619Z,0.90
2018-02-05T09:33:22.135Z,0.90
2018-02-05T09:35:48.679Z,1.10
2018-02-05T09:38:15.915Z,1.30
2018-02-05T09:40:42.374Z,1.30
2018-02-05T09:43:08.879Z,1.60
2018-02-05T09:45:35.343Z,1.80
2018-02-05T09:48:01.860Z,1.90
2018-02-05T09:50:28.455Z,1.70
2018-02-05T09:52:55.723Z,1.60
2018-02-05T09:55:22.177Z,1.50
2018-02-05T09:57:48.654Z,1.70
2018-02-05T10:00:15.158Z,2.10
2018-02-05T10:02:41.634Z,2.40
2018-02-05T10:05:08.968Z,2.50
2018-02-05T10:07:35.733Z,2.40
2018-02-05T10:10:03.167Z,2.90
2018-02-05T10:12:29.633Z,2.90
2018-02-05T10:14:56.904Z,2.90
2018-02-05T10:17:23.571Z,2.90
2018-02-05T10:19:50.082Z,2.60
2018-02-05T10:22:16.699Z,2.10
2018-02-05T10:24:43.163Z,2.50
2018-02-05T10:27:09.839Z,2.60
2018-02-05T10:29:36.335Z,2.50
2018-02-05T10:32:02.807Z,2.60
2018-02-05T10:34:29.290Z,2.80
2018-02-05T10:36:55.788Z,2.70
2018-02-05T10:39:22.982Z,2.50
2018-02-05T10:41:49.482Z,2.50
2018-02-05T10:44:16.717Z,2.50
2018-02-05T10:46:43.914Z,3.00
2018-02-05T10:49:10.359Z,2.90
2018-02-05T10:51:36.796Z,3.20
2018-02-05T10:54:03.248Z,3.00
2018-02-05T10:56:29.679Z,2.80
2018-02-05T10:58:56.249Z,2.70
2018-02-05T11:01:24.310Z,3.10
2018-02-05T11:03:50.743Z,2.90
2018-02-05T11:06:17.184Z,3.20
2018-02-05T11:08:44.447Z,4.20
2018-02-05T11:11:11.763Z,3.40
2018-02-05T11:13:38.334Z,3.40
2018-02-05T11:16:04.878Z,3.20
2018-02-05T11:18:31.351Z,3.30
2018-02-05T11:20:58.022Z,3.30
2018-02-05T11:23:24.509Z,3.90
2018-02-05T11:25:51.185Z,3.70
2018-02-05T11:28:17.895Z,4.30
2018-02-05T11:30:44.359Z,4.10
2018-02-05T11:33:10.944Z,3.80
2018-02-05T11:35:37.507Z,4.30
2018-02-05T11:38:04.119Z,4.70
2018-02-05T11:40:30.810Z,4.50
2018-02-05T11:42:57.466Z,4.80
2018-02-05T11:45:24.114Z,5.40
2018-02-05T11:47:50.679Z,5.80
2018-02-05T11:50:17.204Z,5.90
2018-02-05T11:52:43.812Z,4.50
2018-02-05T11:55:11.315Z,5.10
2018-02-05T11:57:38.103Z,5.10
2018-02-05T12:00:05.649Z,5.10
2018-02-05T12:02:32.268Z,5.00
2018-02-05T12:04:58.870Z,5.10
2018-02-05T12:07:25.375Z,5.00
2018-02-05T12:09:52.630Z,4.70
2018-02-05T12:12:19.952Z,4.70
2018-02-05T12:14:46.460Z,4.70
2018-02-05T12:17:12.997Z,5.30
2018-02-05T12:19:39.447Z,5.40
2018-02-05T12:22:05.934Z,5.60
2018-02-05T12:24:32.463Z,5.70
2018-02-05T12:26:59.824Z,5.70
2018-02-05T12:29:27.043Z,5.40
2018-02-05T12:31:54.828Z,5.40
2018-02-05T12:34:22.250Z,5.60
2018-02-05T12:36:48.756Z,5.50
2018-02-05T12:39:15.256Z,4.90
2018-02-05T12:41:42.538Z,4.60
2018-02-05T12:44:09.040Z,4.60
2018-02-05T12:46:36.284Z,3.40
2018-02-05T12:49:02.801Z,3.40
2018-02-05T12:51:29.298Z,3.50
2018-02-05T12:53:55.878Z,3.80
2018-02-05T12:56:22.374Z,3.90
2018-02-05T12:58:48.860Z,4.30
2018-02-05T13:04:23.846Z,4.70
2018-02-05T13:06:50.287Z,4.90
2018-02-05T13:09:16.720Z,5.10
2018-02-05T13:11:43.888Z,5.20
2018-02-05T13:14:12.972Z,5.20
2018-02-05T13:16:40.136Z,5.40
2018-02-05T13:19:07.288Z,5.40
2018-02-05T13:21:35.923Z,5.40
2018-02-05T13:24:02.321Z,5.40
2018-02-05T13:26:35.614Z,6.00
2018-02-05T13:29:02.218Z,5.40
2018-02-05T13:31:28.857Z,5.00
2018-02-05T13:33:56.131Z,5.00
2018-02-05T13:36:22.611Z,4.90
2018-02-05T13:38:49.149Z,5.00
2018-02-05T13:41:15.533Z,5.20
2018-02-05T13:43:41.961Z,5.30
2018-02-05T13:46:08.451Z,5.80
2018-02-05T13:48:34.973Z,6.00
2018-02-05T13:51:02.228Z,6.10
2018-02-05T13:53:28.690Z,5.90
2018-02-05T13:55:55.877Z,5.60
2018-02-05T13:58:22.276Z,5.60
2018-02-05T14:00:49.469Z,5.20
2018-02-05T14:03:15.944Z,5.20
2018-02-05T14:05:42.382Z,5.20
2018-02-05T14:08:10.105Z,5.70
2018-02-05T14:10:37.624Z,5.70
2018-02-05T14:13:04.075Z,6.20
2018-02-05T14:15:30.469Z,5.60
2018-02-05T14:17:57.673Z,5.60
2018-02-05T14:20:24.900Z,5.60
2018-02-05T14:22:51.415Z,5.30
2018-02-05T14:25:17.853Z,5.50
2018-02-05T14:27:45.069Z,5.60
2018-02-05T14:30:11.558Z,5.60
2018-02-05T14:32:38.366Z,5.60
2018-02-05T14:35:05.547Z,5.50
2018-02-05T14:37:31.987Z,5.50
2018-02-05T14:39:58.410Z,5.10
2018-02-05T14:42:24.803Z,4.40
2018-02-05T14:44:51.196Z,4.30
2018-02-05T14:47:18.436Z,4.40
2018-02-05T14:49:44.865Z,4.30
2018-02-05T14:52:11.513Z,4.80
2018-02-05T14:54:45.074Z,5.00
2018-02-05T14:57:12.448Z,5.10
2018-02-05T14:59:38.879Z,5.10
2018-02-05T15:02:05.294Z,4.40
2018-02-05T15:04:31.868Z,3.90
2018-02-05T15:06:58.264Z,3.70
2018-02-05T15:11:57.776Z,3.00
2018-02-05T15:14:24.924Z,2.70
2018-02-05T15:16:51.358Z,2.70
2018-02-05T15:19:19.509Z,2.50
2018-02-05T15:21:45.921Z,2.50
2018-02-05T15:24:12.301Z,2.40
2018-02-05T15:26:38.810Z,2.40
2018-02-05T15:29:05.185Z,2.40
2018-02-05T15:31:31.738Z,2.50
2018-02-05T15:33:58.352Z,2.30
2018-02-05T15:36:24.768Z,2.20
2018-02-05T15:38:51.937Z,2.10
2018-02-05T15:41:18.368Z,2.10
2018-02-05T15:43:44.846Z,2.10
2018-02-05T15:46:11.272Z,2.20
2018-02-05T15:48:37.649Z,2.00
2018-02-05T15:51:04.139Z,2.00
2018-02-05T15:53:30.586Z,2.00
2018-02-05T15:55:57.000Z,1.90
2018-02-05T15:58:23.417Z,1.80
2018-02-05T16:00:50.682Z,1.80
2018-02-05T16:03:17.073Z,1.70
2018-02-05T16:05:43.462Z,1.70
2018-02-05T16:08:09.936Z,1.70
2018-02-05T16:10:37.320Z,1.70
2018-02-05T16:13:04.945Z,1.60
2018-02-05T16:15:31.349Z,1.60
2018-02-05T16:17:58.131Z,1.60
2018-02-05T16:20:25.063Z,1.40
2018-02-05T16:22:51.479Z,1.40
2018-02-05T16:25:18.654Z,1.40
2018-02-05T16:27:45.086Z,1.40
2018-02-05T16:30:11.554Z,1.40
2018-02-05T16:32:37.985Z,1.30
2018-02-05T16:35:04.462Z,1.30
2018-02-05T16:37:30.930Z,1.20
2018-02-05T16:39:57.368Z,1.10
2018-02-05T16:42:23.908Z,1.10
2018-02-05T16:44:50.309Z,1.10
2018-02-05T16:47:19.809Z,1.00
2018-02-05T16:49:46.300Z,0.90
2018-02-05T16:52:12.754Z,0.90
2018-02-05T16:54:40.245Z,0.90
2018-02-05T16:57:06.715Z,0.90
2018-02-05T16:59:33.218Z,0.80
2018-02-05T17:01:59.673Z,0.80
2018-02-05T17:04:26.237Z,0.70
2018-02-05T17:06:52.688Z,0.80
2018-02-05T17:09:19.976Z,0.80
2018-02-05T17:11:46.530Z,0.80
2018-02-05T17:14:13.866Z,0.70
2018-02-05T17:16:40.325Z,0.70
2018-02-05T17:19:06.754Z,0.60
2018-02-05T17:21:33.360Z,0.60
2018-02-05T17:23:59.762Z,0.50
2018-02-05T17:26:26.918Z,0.50
2018-02-05T17:28:53.350Z,0.50
2018-02-05T17:31:19.922Z,0.60
2018-02-05T17:33:46.315Z,0.60
2018-02-05T17:36:13.584Z,0.60
2018-02-05T17:38:39.997Z,0.50
2018-02-05T17:41:06.559Z,0.50
2018-02-05T17:43:33.122Z,0.50
2018-02-05T17:48:39.056Z,0.50
2018-02-05T17:51:05.680Z,0.50
2018-02-05T17:53:32.089Z,0.40
2018-02-05T17:55:58.587Z,0.40
2018-02-05T17:58:25.109Z,0.30
2018-02-05T18:00:51.555Z,0.30
2018-02-05T18:03:18.043Z,0.30
2018-02-05T18:05:44.783Z,0.30
2018-02-05T18:08:11.302Z,0.30
2018-02-05T18:10:37.739Z,0.30
2018-02-05T18:13:04.911Z,0.10
2018-02-05T18:15:31.358Z,0.10
2018-02-05T18:17:57.857Z,0.10
2018-02-05T18:23:21.645Z,-0.10
2018-02-05T18:25:48.833Z,-0.20
2018-02-05T18:28:15.497Z,-0.20
2018-02-05T18:30:41.936Z,-0.10
2018-02-05T18:33:08.465Z,0.00
2018-02-05T18:35:34.978Z,0.10
2018-02-05T18:38:01.449Z,0.10
2018-02-05T18:40:28.052Z,0.10
2018-02-05T18:42:54.622Z,-0.10
2018-02-05T18:45:21.265Z,-0.20
2018-02-05T18:47:48.599Z,-0.10
2018-02-05T18:50:15.129Z,-0.10
2018-02-05T18:52:41.719Z,-0.20
2018-02-05T18:55:08.191Z,-0.30
2018-02-05T18:57:34.723Z,-0.30
2018-02-05T19:00:13.469Z,-0.30
2018-02-05T19:02:40.803Z,-0.30
2018-02-05T19:05:07.563Z,-0.30
2018-02-05T19:07:34.101Z,-0.20
2018-02-05T19:10:00.892Z,-0.20
2018-02-05T19:12:27.332Z,-0.30
2018-02-05T19:14:54.594Z,-0.40
2018-02-05T19:17:21.010Z,-0.40
2018-02-05T19:19:47.512Z,-0.50
2018-02-05T19:22:15.677Z,-0.60
2018-02-05T19:24:43.027Z,-0.60
2018-02-05T19:27:09.519Z,-0.60
2018-02-05T19:29:35.997Z,-0.60
2018-02-05T19:32:03.253Z,-0.60
2018-02-05T19:34:29.754Z,-0.60
2018-02-05T19:36:56.265Z,-0.70
2018-02-05T19:39:22.687Z,-0.80
2018-02-05T19:41:49.237Z,-0.80
2018-02-05T19:44:15.645Z,-0.80
2018-02-05T19:46:42.136Z,-0.80
2018-02-05T19:49:08.611Z,-0.90
2018-02-05T19:51:35.030Z,-1.00
2018-02-05T19:54:01.587Z,-1.10
2018-02-05T19:56:28.804Z,-1.20
2018-02-05T19:58:56.011Z,-1.30
2018-02-05T20:01:22.394Z,-1.30
2018-02-05T20:03:49.020Z,-1.00
2018-02-05T20:06:16.260Z,-1.10
2018-02-05T20:08:42.689Z,-1.20
2018-02-05T20:11:09.825Z,-1.10
2018-02-05T20:13:36.973Z,-1.10
2018-02-05T20:16:03.511Z,-1.10
2018-02-05T20:21:14.021Z,-1.10
2018-02-05T20:23:40.529Z,-1.20
2018-02-05T20:26:07.346Z,-1.20
2018-02-05T20:28:34.611Z,-1.20
2018-02-05T20:31:01.108Z,-1.30
2018-02-05T20:33:27.736Z,-1.20
2018-02-05T20:35:54.284Z,-1.20
2018-02-05T20:38:20.872Z,-1.30
2018-02-05T20:40:47.366Z,-1.40
2018-02-05T20:43:13.913Z,-1.30
2018-02-05T20:45:40.788Z,-1.30
2018-02-05T20:48:08.129Z,-1.40
2018-02-05T20:50:34.689Z,-1.40
2018-02-05T20:53:01.843Z,-1.40
2018-02-05T20:55:29.018Z,-1.40
2018-02-05T20:57:55.483Z,-1.40
2018-02-05T21:00:21.983Z,-1.40
2018-02-05T21:02:48.926Z,-1.40
2018-02-05T21:08:11.609Z,-1.50
2018-02-05T21:10:41.206Z,-1.50
2018-02-05T21:13:07.677Z,-1.50
2018-02-05T21:15:41.174Z,-1.50
2018-02-05T21:18:09.613Z,-1.50
2018-02-05T21:20:36.152Z,-1.60
2018-02-05T21:23:02.633Z,-1.60
2018-02-05T21:25:30.075Z,-1.60
2018-02-05T21:27:56.802Z,-1.60
2018-02-05T21:40:08.443Z,-1.60
2018-02-05T21:42:35.059Z,-1.50
2018-02-05T21:45:01.772Z,-1.40
2018-02-05T21:47:29.170Z,-1.40
2018-02-05T21:49:55.747Z,-1.40
2018-02-05T21:52:23.335Z,-1.40
2018-02-05T21:54:49.836Z,-1.40
2018-02-05T21:57:16.316Z,-1.40
2018-02-05T21:59:42.794Z,-1.40
2018-02-05T22:02:09.274Z,-1.40
2018-02-05T22:04:35.690Z,-1.40
2018-02-05T22:07:02.260Z,-1.30
2018-02-05T22:09:28.888Z,-1.40
2018-02-05T22:11:55.405Z,-1.40
2018-02-05T22:14:21.894Z,-1.50
2018-02-05T22:16:48.366Z,-1.40
2018-02-05T22:19:14.866Z,-1.50
2018-02-05T22:21:41.408Z,-1.50
2018-02-05T22:24:08.568Z,-1.60
2018-02-05T22:26:36.669Z,-1.60
2018-02-05T22:29:03.152Z,-1.60
2018-02-05T22:31:29.629Z,-1.40
2018-02-05T22:33:56.047Z,-1.60
2018-02-05T22:36:22.505Z,-1.60
2018-02-05T22:38:48.926Z,-1.60
2018-02-05T22:41:15.405Z,-1.60
2018-02-05T22:43:42.208Z,-1.60
2018-02-05T22:46:08.669Z,-1.60
2018-02-05T22:48:35.097Z,-1.60
2018-02-05T22:51:01.557Z,-1.60
2018-02-05T22:53:27.989Z,-1.70
2018-02-05T22:55:54.529Z,-1.70
2018-02-05T22:58:21.000Z,-1.70
2018-02-05T23:00:47.392Z,-1.70
2018-02-05T23:03:13.925Z,-1.70
2018-02-05T23:05:40.341Z,-1.70
2018-02-05T23:08:06.795Z,-1.60
2018-02-05T23:10:33.377Z,-1.70
2018-02-05T23:13:00.103Z,-1.60
2018-02-05T23:15:26.525Z,-1.60
2018-02-05T23:17:52.985Z,-1.60
2018-02-05T23:20:19.404Z,-1.50
2018-02-05T23:22:45.766Z,-1.50
2018-02-05T23:25:12.184Z,-1.50
2018-02-05T23:27:38.649Z,-1.50
2018-02-05T23:30:05.069Z,-1.40
2018-02-05T23:32:32.023Z,-1.50
2018-02-05T23:34:58.503Z,-1.40
2018-02-05T23:37:25.007Z,-1.40
2018-02-05T23:39:52.161Z,-1.40
2018-02-05T23:42:19.316Z,-1.40
2018-02-05T23:44:46.568Z,-1.40
2018-02-05T23:47:13.849Z,-1.40
2018-02-05T23:49:40.325Z,-1.40
2018-02-05T23:52:06.812Z,-1.40
2018-02-05T23:54:33.410Z,-1.50
2018-02-05T23:56:59.808Z,-1.40
2018-02-05T23:59:26.245Z,-1.50
